createdAt,value
2019-01-25T00:01:12.035Z,26.00
2019-01-25T00:03:38.260Z,26.10
2019-01-25T00:06:04.471Z,26.10
2019-01-25T00:08:30.707Z,26.00
2019-01-25T00:10:56.910Z,26.00
2019-01-25T00:13:23.143Z,26.00
2019-01-25T00:15:49.367Z,26.00
2019-01-25T00:18:15.610Z,26.10
2019-01-25T00:20:41.823Z,26.10
2019-01-25T00:23:08.069Z,26.10
2019-01-25T00:25:34.302Z,26.10
2019-01-25T00:28:00.523Z,26.10
2019-01-25T00:30:26.755Z,26.10
2019-01-25T00:32:52.979Z,26.10
2019-01-25T00:35:19.196Z,26.10
2019-01-25T00:37:45.432Z,26.00
2019-01-25T00:40:11.670Z,26.00
2019-01-25T00:42:37.923Z,26.00
2019-01-25T00:45:04.121Z,26.10
2019-01-25T00:47:30.386Z,26.10
2019-01-25T00:49:56.782Z,26.10
2019-01-25T00:52:23.357Z,26.00
2019-01-25T00:54:50.481Z,26.10
2019-01-25T00:57:18.213Z,26.10
2019-01-25T00:59:44.540Z,26.10
2019-01-25T01:02:10.777Z,26.10
2019-01-25T01:04:37.011Z,26.10
2019-01-25T01:07:03.242Z,26.10
2019-01-25T01:09:29.455Z,26.10
2019-01-25T01:11:55.695Z,26.00
2019-01-25T01:14:21.930Z,26.00
2019-01-25T01:16:48.179Z,26.10
2019-01-25T01:19:14.570Z,25.80
2019-01-25T01:21:40.821Z,26.00
2019-01-25T01:24:07.077Z,26.00
2019-01-25T01:26:33.481Z,26.00
2019-01-25T01:28:59.714Z,26.00
2019-01-25T01:31:27.568Z,26.10
2019-01-25T01:33:53.812Z,26.00
2019-01-25T01:36:20.039Z,26.00
2019-01-25T01:38:46.253Z,26.00
2019-01-25T01:41:12.492Z,26.00
2019-01-25T01:43:38.757Z,26.00
2019-01-25T01:46:05.134Z,26.00
2019-01-25T01:48:31.371Z,26.50
2019-01-25T01:50:57.591Z,26.00
2019-01-25T01:53:23.834Z,26.00
2019-01-25T01:55:52.112Z,26.00
2019-01-25T01:58:18.348Z,26.00
2019-01-25T02:00:44.588Z,26.00
2019-01-25T02:03:10.796Z,26.00
2019-01-25T02:05:37.007Z,26.00
2019-01-25T02:08:03.203Z,26.00
2019-01-25T02:10:29.859Z,26.00
2019-01-25T02:12:55.690Z,26.00
2019-01-25T02:15:21.977Z,26.00
2019-01-25T02:17:48.358Z,26.00
2019-01-25T02:20:14.603Z,26.00
2019-01-25T02:22:40.803Z,26.00
2019-01-25T02:25:07.021Z,26.00
2019-01-25T02:27:33.266Z,25.90
2019-01-25T02:29:59.481Z,25.80
2019-01-25T02:32:25.732Z,25.90
2019-01-25T02:34:51.952Z,25.90
2019-01-25T02:37:18.171Z,25.90
2019-01-25T02:39:44.414Z,25.80
2019-01-25T02:42:12.273Z,26.00
2019-01-25T02:44:38.480Z,25.90
2019-01-25T02:47:04.736Z,25.90
2019-01-25T02:49:30.951Z,26.00
2019-01-25T02:51:57.196Z,25.90
2019-01-25T02:54:23.417Z,25.90
2019-01-25T02:56:49.652Z,25.90
2019-01-25T02:59:15.879Z,25.90
2019-01-25T03:01:42.151Z,25.90
2019-01-25T03:04:08.528Z,25.80
2019-01-25T03:06:34.761Z,25.80
2019-01-25T03:09:00.994Z,25.90
2019-01-25T03:11:27.205Z,25.90
2019-01-25T03:13:53.457Z,25.80
2019-01-25T03:16:19.693Z,25.80
2019-01-25T03:18:46.099Z,25.80
2019-01-25T03:21:12.298Z,25.90
2019-01-25T03:23:38.559Z,25.90
2019-01-25T03:26:04.793Z,25.80
2019-01-25T03:28:32.698Z,25.80
2019-01-25T03:30:59.097Z,25.80
2019-01-25T03:33:25.521Z,25.80
2019-01-25T03:35:53.217Z,25.80
2019-01-25T03:38:19.612Z,25.80
2019-01-25T03:40:45.880Z,25.80
2019-01-25T03:43:12.260Z,25.70
2019-01-25T03:45:38.492Z,25.80
2019-01-25T03:48:05.145Z,25.80
2019-01-25T03:50:31.366Z,25.80
2019-01-25T03:52:57.598Z,25.80
2019-01-25T03:55:23.844Z,25.70
2019-01-25T03:57:50.037Z,25.70
2019-01-25T04:00:16.286Z,25.60
2019-01-25T04:02:42.512Z,25.70
2019-01-25T04:05:08.746Z,25.80
2019-01-25T04:07:34.980Z,25.80
2019-01-25T04:10:01.206Z,25.90
2019-01-25T04:12:27.408Z,25.90
2019-01-25T04:14:53.639Z,26.00
2019-01-25T04:17:19.871Z,26.10
2019-01-25T04:19:46.131Z,26.10
2019-01-25T04:22:12.338Z,26.30
2019-01-25T04:24:38.613Z,26.20
2019-01-25T04:27:05.005Z,26.40
2019-01-25T04:29:31.226Z,26.40
2019-01-25T04:31:57.476Z,26.50
2019-01-25T04:34:23.651Z,26.50
2019-01-25T04:36:49.895Z,26.50
2019-01-25T04:39:16.134Z,26.50
2019-01-25T04:41:42.355Z,26.60
2019-01-25T04:44:08.588Z,26.80
2019-01-25T04:46:34.819Z,26.90
2019-01-25T04:49:01.044Z,26.90
2019-01-25T04:51:27.272Z,26.90
2019-01-25T04:53:53.513Z,27.10
2019-01-25T04:56:19.720Z,27.10
2019-01-25T04:58:45.975Z,27.20
2019-01-25T05:01:12.187Z,27.30
2019-01-25T05:03:38.391Z,27.30
2019-01-25T05:06:04.664Z,27.40
2019-01-25T05:08:32.558Z,27.40
2019-01-25T05:10:58.950Z,27.40
2019-01-25T05:13:25.149Z,27.40
2019-01-25T05:15:51.416Z,27.40
2019-01-25T05:18:17.605Z,27.50
2019-01-25T05:20:43.909Z,27.50
2019-01-25T05:23:10.098Z,27.40
2019-01-25T05:25:36.526Z,27.40
2019-01-25T05:28:02.740Z,27.30
2019-01-25T05:30:28.967Z,27.30
2019-01-25T05:32:55.198Z,27.30
2019-01-25T05:35:21.434Z,27.20
2019-01-25T05:37:47.671Z,27.20
2019-01-25T05:40:14.142Z,27.30
2019-01-25T05:42:40.521Z,27.30
2019-01-25T05:45:06.749Z,27.20
2019-01-25T05:47:32.982Z,27.20
2019-01-25T05:49:59.209Z,27.20
2019-01-25T05:52:25.437Z,27.30
2019-01-25T05:54:51.681Z,27.30
2019-01-25T05:57:17.886Z,27.20
2019-01-25T05:59:44.116Z,27.20
2019-01-25T06:02:10.335Z,27.20
2019-01-25T06:04:36.564Z,27.20
2019-01-25T06:07:02.815Z,27.20
2019-01-25T06:09:29.050Z,27.20
2019-01-25T06:11:56.075Z,27.20
2019-01-25T06:14:22.328Z,27.10
2019-01-25T06:16:48.504Z,27.10
2019-01-25T06:19:14.784Z,27.10
2019-01-25T06:21:40.993Z,27.10
2019-01-25T06:24:07.227Z,27.10
2019-01-25T06:26:35.086Z,27.60
2019-01-25T06:29:01.323Z,27.10
2019-01-25T06:31:27.539Z,27.10
2019-01-25T06:33:53.759Z,27.10
2019-01-25T06:36:20.051Z,27.10
2019-01-25T06:38:46.238Z,27.10
2019-01-25T06:41:14.142Z,27.10
2019-01-25T06:43:40.525Z,27.00
2019-01-25T06:46:06.763Z,27.00
2019-01-25T06:48:32.971Z,27.10
2019-01-25T06:50:59.183Z,27.00
2019-01-25T06:53:25.476Z,27.00
2019-01-25T06:55:51.859Z,27.00
2019-01-25T06:58:18.080Z,27.00
2019-01-25T07:00:44.382Z,27.00
2019-01-25T07:03:10.778Z,27.00
2019-01-25T07:05:36.994Z,26.90
2019-01-25T07:08:03.198Z,27.00
2019-01-25T07:10:29.466Z,26.90
2019-01-25T07:12:55.697Z,26.90
2019-01-25T07:15:21.893Z,27.00
2019-01-25T07:17:48.128Z,26.90
2019-01-25T07:20:14.385Z,27.00
2019-01-25T07:22:40.783Z,27.00
2019-01-25T07:25:07.015Z,27.00
2019-01-25T07:27:33.249Z,27.00
2019-01-25T07:29:59.493Z,26.90
2019-01-25T07:32:25.708Z,27.00
2019-01-25T07:34:51.916Z,27.00
2019-01-25T07:37:18.172Z,26.90
2019-01-25T07:39:44.621Z,26.90
2019-01-25T07:42:11.018Z,26.90
2019-01-25T07:44:37.216Z,26.90
2019-01-25T07:47:03.495Z,26.90
2019-01-25T07:49:29.948Z,26.90
2019-01-25T07:51:56.360Z,26.80
2019-01-25T07:54:22.634Z,26.80
2019-01-25T07:56:49.016Z,26.90
2019-01-25T07:59:15.262Z,26.80
2019-01-25T08:01:41.703Z,26.80
2019-01-25T08:04:08.102Z,26.80
2019-01-25T08:06:34.360Z,26.80
2019-01-25T08:09:00.765Z,26.80
2019-01-25T08:11:27.033Z,26.90
2019-01-25T08:13:53.410Z,26.80
2019-01-25T08:16:19.640Z,26.80
2019-01-25T08:18:45.868Z,26.80
2019-01-25T08:21:12.136Z,26.90
2019-01-25T08:23:38.395Z,26.80
2019-01-25T08:26:04.792Z,26.80
2019-01-25T08:28:31.815Z,26.80
2019-01-25T08:30:58.025Z,26.80
2019-01-25T08:33:24.301Z,26.80
2019-01-25T08:35:50.729Z,26.80
2019-01-25T08:38:17.142Z,26.80
2019-01-25T08:40:44.228Z,26.80
2019-01-25T08:43:10.608Z,26.80
2019-01-25T08:45:36.826Z,26.80
2019-01-25T08:48:03.074Z,26.80
2019-01-25T08:50:29.587Z,26.80
2019-01-25T08:52:55.930Z,26.80
2019-01-25T08:55:22.152Z,26.80
2019-01-25T08:57:50.112Z,26.80
2019-01-25T09:00:16.444Z,26.80
2019-01-25T09:02:42.674Z,26.80
2019-01-25T09:05:08.920Z,26.80
2019-01-25T09:07:35.169Z,26.80
2019-01-25T09:10:01.368Z,26.80
2019-01-25T09:12:27.621Z,26.90
2019-01-25T09:14:53.836Z,26.80
2019-01-25T09:17:21.696Z,26.90
2019-01-25T09:19:47.920Z,26.80
2019-01-25T09:22:14.120Z,26.80
2019-01-25T09:24:40.380Z,26.80
2019-01-25T09:27:06.600Z,26.80
2019-01-25T09:29:32.851Z,26.80
2019-01-25T09:31:59.051Z,26.90
2019-01-25T09:34:25.281Z,26.80
2019-01-25T09:36:51.553Z,26.80
2019-01-25T09:39:17.944Z,26.80
2019-01-25T09:41:44.187Z,26.90
2019-01-25T09:44:10.399Z,26.80
2019-01-25T09:46:36.637Z,26.90
2019-01-25T09:49:02.913Z,26.90
2019-01-25T09:51:29.295Z,26.90
2019-01-25T09:53:55.521Z,26.80
2019-01-25T09:56:21.749Z,26.90
2019-01-25T09:58:47.978Z,26.90
2019-01-25T10:01:14.203Z,26.90
2019-01-25T10:03:40.426Z,26.90
2019-01-25T10:06:06.679Z,26.90
2019-01-25T10:08:32.900Z,26.90
2019-01-25T10:10:59.128Z,27.00
2019-01-25T10:13:25.344Z,27.00
2019-01-25T10:15:51.581Z,27.00
2019-01-25T10:18:17.789Z,27.00
2019-01-25T10:20:44.052Z,27.00
2019-01-25T10:23:10.248Z,27.00
2019-01-25T10:25:36.499Z,27.00
2019-01-25T10:28:03.518Z,27.10
2019-01-25T10:30:29.704Z,27.10
2019-01-25T10:32:56.816Z,27.20
2019-01-25T10:35:23.029Z,27.10
2019-01-25T10:37:49.289Z,27.20
2019-01-25T10:40:16.327Z,27.30
2019-01-25T10:42:44.375Z,27.30
2019-01-25T10:45:09.988Z,27.80
2019-01-25T10:47:36.223Z,27.40
2019-01-25T10:50:02.454Z,27.40
2019-01-25T10:52:28.670Z,27.50
2019-01-25T10:54:54.917Z,27.60
2019-01-25T10:57:21.115Z,27.60
2019-01-25T10:59:47.365Z,27.60
2019-01-25T11:02:13.591Z,27.60
2019-01-25T11:04:39.841Z,27.60
2019-01-25T11:07:06.070Z,27.70
2019-01-25T11:09:32.487Z,27.80
2019-01-25T11:11:58.732Z,27.80
2019-01-25T11:14:24.930Z,27.90
2019-01-25T11:16:51.119Z,27.80
2019-01-25T11:19:17.313Z,27.80
2019-01-25T11:21:43.603Z,27.90
2019-01-25T11:24:09.856Z,28.00
2019-01-25T11:26:36.080Z,28.30
2019-01-25T11:29:03.947Z,28.50
2019-01-25T11:31:30.162Z,28.60
2019-01-25T11:33:56.384Z,28.70
2019-01-25T11:36:22.627Z,28.80
2019-01-25T11:38:48.921Z,28.80
2019-01-25T11:41:15.291Z,29.00
2019-01-25T11:43:41.521Z,29.00
2019-01-25T11:46:07.752Z,29.00
2019-01-25T11:48:33.976Z,29.10
2019-01-25T11:51:00.186Z,29.10
2019-01-25T11:53:26.418Z,29.00
2019-01-25T11:55:52.664Z,29.10
2019-01-25T11:58:18.896Z,29.10
2019-01-25T12:00:45.120Z,29.10
2019-01-25T12:03:11.335Z,29.10
2019-01-25T12:05:37.571Z,29.20
2019-01-25T12:08:03.829Z,29.20
2019-01-25T12:10:30.220Z,29.10
2019-01-25T12:12:56.448Z,29.10
2019-01-25T12:15:22.683Z,29.20
2019-01-25T12:17:48.921Z,29.30
2019-01-25T12:20:15.089Z,29.40
2019-01-25T12:22:42.199Z,29.70
2019-01-25T12:25:08.419Z,29.70
2019-01-25T12:27:34.652Z,29.60
2019-01-25T12:30:00.960Z,29.70
2019-01-25T12:32:27.314Z,29.60
2019-01-25T12:34:53.585Z,29.60
2019-01-25T12:37:19.966Z,29.50
2019-01-25T12:39:46.188Z,29.60
2019-01-25T12:42:12.611Z,29.60
2019-01-25T12:44:38.860Z,29.90
2019-01-25T12:47:05.085Z,29.90
2019-01-25T12:49:31.306Z,29.90
2019-01-25T12:51:58.616Z,29.90
2019-01-25T12:54:23.963Z,29.90
2019-01-25T12:56:50.247Z,29.90
2019-01-25T12:59:16.447Z,29.90
2019-01-25T13:01:43.488Z,29.90
2019-01-25T13:04:11.334Z,29.80
2019-01-25T13:06:37.564Z,29.80
2019-01-25T13:09:03.805Z,29.80
2019-01-25T13:11:30.825Z,29.70
2019-01-25T13:13:57.070Z,30.10
2019-01-25T13:16:23.303Z,29.70
2019-01-25T13:18:49.540Z,29.80
2019-01-25T13:21:17.379Z,29.80
2019-01-25T13:23:43.614Z,29.80
2019-01-25T13:26:09.875Z,29.80
2019-01-25T13:28:36.371Z,29.60
2019-01-25T13:31:02.687Z,29.70
2019-01-25T13:33:28.945Z,29.60
2019-01-25T13:35:55.163Z,29.70
2019-01-25T13:38:21.433Z,29.70
2019-01-25T13:40:47.621Z,29.80
2019-01-25T13:43:13.844Z,29.80
2019-01-25T13:45:40.095Z,29.70
2019-01-25T13:48:06.300Z,29.60
2019-01-25T13:50:32.524Z,29.70
2019-01-25T13:52:58.788Z,29.60
2019-01-25T13:55:25.211Z,29.70
2019-01-25T13:57:51.483Z,29.80
2019-01-25T14:00:17.898Z,29.80
2019-01-25T14:02:44.317Z,29.70
2019-01-25T14:05:11.324Z,29.70
2019-01-25T14:07:37.565Z,29.70
2019-01-25T14:10:03.791Z,29.80
2019-01-25T14:12:30.036Z,29.80
2019-01-25T14:14:56.512Z,29.80
2019-01-25T14:17:22.931Z,29.80
2019-01-25T14:19:49.332Z,29.90
2019-01-25T14:22:15.563Z,29.70
2019-01-25T14:24:41.803Z,29.90
2019-01-25T14:27:08.002Z,29.90
2019-01-25T14:29:34.236Z,29.80
2019-01-25T14:32:00.483Z,29.90
2019-01-25T14:34:26.700Z,29.80
2019-01-25T14:36:52.915Z,29.80
2019-01-25T14:39:19.159Z,29.80
2019-01-25T14:41:45.364Z,29.90
2019-01-25T14:44:11.656Z,29.90
2019-01-25T14:46:37.823Z,29.70
2019-01-25T14:49:04.040Z,29.80
2019-01-25T14:51:30.267Z,30.20
2019-01-25T14:53:56.518Z,29.70
2019-01-25T14:56:22.767Z,29.80
2019-01-25T14:58:48.965Z,29.90
2019-01-25T15:01:15.231Z,29.90
2019-01-25T15:03:41.450Z,29.90
2019-01-25T15:06:07.881Z,30.00
2019-01-25T15:08:34.083Z,30.20
2019-01-25T15:11:00.311Z,30.20
2019-01-25T15:13:26.573Z,30.20
2019-01-25T15:15:52.775Z,30.20
2019-01-25T15:18:19.038Z,30.20
2019-01-25T15:20:45.440Z,30.10
2019-01-25T15:23:11.669Z,30.00
2019-01-25T15:25:37.940Z,30.10
2019-01-25T15:28:04.328Z,30.20
2019-01-25T15:30:30.547Z,30.10
2019-01-25T15:32:56.775Z,30.10
2019-01-25T15:35:23.016Z,30.10
2019-01-25T15:37:49.249Z,30.10
2019-01-25T15:40:15.459Z,30.10
2019-01-25T15:42:41.720Z,30.00
2019-01-25T15:45:08.135Z,30.00
2019-01-25T15:47:34.356Z,30.00
2019-01-25T15:50:00.578Z,30.00
2019-01-25T15:52:26.812Z,30.00
2019-01-25T15:54:53.028Z,30.10
2019-01-25T15:57:19.258Z,30.10
2019-01-25T15:59:45.510Z,30.20
2019-01-25T16:02:13.344Z,30.50
2019-01-25T16:04:39.583Z,30.40
2019-01-25T16:07:06.062Z,30.50
2019-01-25T16:09:32.448Z,30.40
2019-01-25T16:11:58.681Z,30.50
2019-01-25T16:14:24.895Z,30.50
2019-01-25T16:16:51.135Z,30.40
2019-01-25T16:19:17.362Z,30.40
2019-01-25T16:21:43.654Z,30.40
2019-01-25T16:24:10.120Z,30.40
2019-01-25T16:26:36.480Z,30.40
2019-01-25T16:29:04.169Z,30.40
2019-01-25T16:31:30.602Z,30.60
2019-01-25T16:33:57.002Z,30.60
2019-01-25T16:36:23.240Z,30.80
2019-01-25T16:38:50.320Z,31.20
2019-01-25T16:41:16.701Z,31.20
2019-01-25T16:43:42.973Z,31.30
2019-01-25T16:46:09.442Z,32.00
2019-01-25T16:48:35.789Z,31.30
2019-01-25T16:51:02.068Z,31.40
2019-01-25T16:53:28.473Z,31.60
2019-01-25T16:55:54.667Z,31.50
2019-01-25T16:58:20.901Z,31.40
2019-01-25T17:00:47.071Z,31.40
2019-01-25T17:03:14.192Z,31.50
2019-01-25T17:05:40.406Z,31.40
2019-01-25T17:08:06.686Z,31.40
2019-01-25T17:10:33.095Z,31.60
2019-01-25T17:12:59.285Z,31.60
2019-01-25T17:15:26.684Z,31.60
2019-01-25T17:17:52.004Z,31.40
2019-01-25T17:20:21.338Z,31.70
2019-01-25T17:22:44.819Z,31.60
2019-01-25T17:25:11.048Z,31.70
2019-01-25T17:27:37.276Z,31.90
2019-01-25T17:30:03.501Z,32.10
2019-01-25T17:32:29.722Z,32.00
2019-01-25T17:34:55.962Z,32.00
2019-01-25T17:37:22.675Z,32.00
2019-01-25T17:39:48.608Z,32.00
2019-01-25T17:42:14.895Z,32.20
2019-01-25T17:44:41.638Z,33.20
2019-01-25T17:47:07.732Z,32.60
2019-01-25T17:49:33.943Z,32.70
2019-01-25T17:52:00.192Z,32.70
2019-01-25T17:54:26.417Z,32.90
2019-01-25T17:56:52.618Z,32.70
2019-01-25T17:59:18.872Z,32.80
2019-01-25T18:01:46.554Z,33.00
2019-01-25T18:04:12.932Z,32.90
2019-01-25T18:06:39.169Z,33.00
2019-01-25T18:09:05.408Z,32.90
2019-01-25T18:11:32.383Z,32.80
2019-01-25T18:13:59.486Z,33.10
2019-01-25T18:16:25.711Z,33.00
2019-01-25T18:18:51.962Z,33.40
2019-01-25T18:21:19.811Z,33.30
2019-01-25T18:23:46.045Z,33.30
2019-01-25T18:26:12.274Z,33.50
2019-01-25T18:28:38.557Z,33.60
2019-01-25T18:31:04.914Z,33.80
2019-01-25T18:33:31.166Z,33.50
2019-01-25T18:35:57.387Z,33.60
2019-01-25T18:38:23.616Z,33.70
2019-01-25T18:40:49.898Z,33.90
2019-01-25T18:43:17.607Z,33.60
2019-01-25T18:45:42.515Z,33.50
2019-01-25T18:48:08.932Z,34.00
2019-01-25T18:50:35.177Z,33.80
2019-01-25T18:53:01.606Z,33.80
2019-01-25T18:55:28.644Z,34.00
2019-01-25T18:57:54.874Z,34.00
2019-01-25T19:00:21.101Z,34.00
2019-01-25T19:02:47.440Z,34.00
2019-01-25T19:05:13.605Z,34.50
2019-01-25T19:07:40.552Z,34.40
2019-01-25T19:10:06.930Z,34.40
2019-01-25T19:12:33.182Z,34.40
2019-01-25T19:15:04.373Z,34.70
2019-01-25T19:17:25.847Z,34.60
2019-01-25T19:19:52.063Z,34.80
2019-01-25T19:22:18.270Z,34.60
2019-01-25T19:24:44.506Z,34.60
2019-01-25T19:27:10.730Z,34.70
2019-01-25T19:29:36.979Z,34.70
2019-01-25T19:32:03.246Z,34.60
2019-01-25T19:34:29.615Z,35.40
2019-01-25T19:36:55.873Z,35.30
2019-01-25T19:39:22.093Z,35.00
2019-01-25T19:41:48.308Z,35.10
2019-01-25T19:44:14.546Z,35.30
2019-01-25T19:46:40.779Z,35.30
2019-01-25T19:49:07.219Z,35.80
2019-01-25T19:51:33.661Z,35.50
2019-01-25T19:53:59.880Z,35.60
2019-01-25T19:56:26.080Z,35.50
2019-01-25T19:58:52.304Z,35.50
2019-01-25T20:01:18.596Z,35.30
2019-01-25T20:03:44.798Z,35.30
2019-01-25T20:06:11.201Z,35.30
2019-01-25T20:08:37.418Z,35.40
2019-01-25T20:11:03.647Z,35.50
2019-01-25T20:13:29.905Z,35.60
2019-01-25T20:15:56.108Z,35.50
2019-01-25T20:18:22.335Z,35.80
2019-01-25T20:20:48.577Z,36.00
2019-01-25T20:23:14.815Z,36.00
2019-01-25T20:25:41.222Z,36.00
2019-01-25T20:28:07.449Z,36.00
2019-01-25T20:30:33.678Z,36.20
2019-01-25T20:32:59.910Z,37.00
2019-01-25T20:35:26.147Z,36.20
2019-01-25T20:37:52.377Z,36.50
2019-01-25T20:40:18.600Z,36.40
2019-01-25T20:42:44.842Z,36.40
2019-01-25T20:45:11.066Z,36.10
2019-01-25T20:47:38.946Z,36.20
2019-01-25T20:50:05.135Z,36.20
2019-01-25T20:52:31.380Z,36.20
2019-01-25T20:54:57.624Z,36.10
2019-01-25T20:57:23.816Z,36.10
2019-01-25T20:59:50.064Z,36.40
2019-01-25T21:02:16.286Z,36.70
2019-01-25T21:04:42.521Z,36.50
2019-01-25T21:07:08.792Z,36.60
2019-01-25T21:09:35.204Z,36.70
2019-01-25T21:12:01.613Z,36.90
2019-01-25T21:14:27.819Z,37.10
2019-01-25T21:16:54.079Z,37.20
2019-01-25T21:19:21.125Z,37.30
2019-01-25T21:21:47.343Z,37.30
2019-01-25T21:24:15.029Z,37.00
2019-01-25T21:26:41.212Z,37.00
2019-01-25T21:29:07.447Z,37.10
2019-01-25T21:31:33.735Z,37.10
2019-01-25T21:34:00.178Z,37.40
2019-01-25T21:36:26.566Z,37.50
2019-01-25T21:38:52.828Z,37.40
2019-01-25T21:41:19.202Z,37.70
2019-01-25T21:43:45.461Z,37.50
2019-01-25T21:46:11.689Z,37.80
2019-01-25T21:48:37.881Z,37.70
2019-01-25T21:51:04.171Z,37.40
2019-01-25T21:53:30.567Z,37.60
2019-01-25T21:55:56.781Z,37.70
2019-01-25T21:58:23.019Z,37.50
2019-01-25T22:00:49.267Z,37.30
2019-01-25T22:03:15.678Z,37.30
2019-01-25T22:05:41.903Z,37.10
2019-01-25T22:08:08.136Z,37.10
2019-01-25T22:10:34.369Z,37.00
2019-01-25T22:13:00.615Z,37.00
2019-01-25T22:15:26.829Z,37.10
2019-01-25T22:17:53.884Z,37.10
2019-01-25T22:20:20.296Z,37.10
2019-01-25T22:22:46.508Z,37.20
2019-01-25T22:25:12.712Z,37.10
2019-01-25T22:27:38.979Z,36.90
2019-01-25T22:30:05.203Z,37.20
2019-01-25T22:32:31.429Z,37.10
2019-01-25T22:34:57.671Z,37.00
2019-01-25T22:37:24.723Z,37.50
2019-01-25T22:39:52.420Z,36.90
2019-01-25T22:42:18.809Z,36.80
2019-01-25T22:44:45.224Z,36.80
2019-01-25T22:47:11.480Z,36.60
2019-01-25T22:49:37.685Z,36.70
2019-01-25T22:52:03.930Z,36.60
2019-01-25T22:54:30.130Z,36.50
2019-01-25T22:56:56.391Z,36.60
2019-01-25T22:59:22.803Z,36.70
2019-01-25T23:01:49.088Z,37.30
2019-01-25T23:04:15.498Z,36.60
2019-01-25T23:06:41.692Z,36.70
2019-01-25T23:09:07.979Z,36.80
2019-01-25T23:11:34.359Z,36.70
2019-01-25T23:14:00.593Z,37.00
2019-01-25T23:16:26.806Z,37.00
2019-01-25T23:18:53.109Z,37.00
2019-01-25T23:21:19.489Z,36.90
2019-01-25T23:23:46.139Z,36.90
2019-01-25T23:26:12.551Z,36.90
2019-01-25T23:28:38.772Z,37.00
2019-01-25T23:31:05.004Z,37.20
2019-01-25T23:33:31.220Z,37.20
2019-01-25T23:35:57.501Z,37.20
2019-01-25T23:38:23.897Z,37.40
2019-01-25T23:40:50.170Z,37.60
2019-01-25T23:43:16.354Z,37.50
2019-01-25T23:45:42.575Z,37.70
2019-01-25T23:48:08.805Z,37.80
2019-01-25T23:50:36.682Z,38.00
2019-01-25T23:53:02.902Z,38.00
2019-01-25T23:55:29.139Z,37.70
2019-01-25T23:57:55.374Z,37.80
